sensor_id;sensor_type;location;lat;lon;timestamp;P1;durP1;ratioP1;P2;durP2;ratioP2
4023;SDS011;2026;51.002;13.668;2022-10-17T00:00:44;6.30;;;4.83;;
4023;SDS011;2026;51.002;13.668;2022-10-17T00:05:47;8.03;;;5.00;;
4023;SDS011;2026;51.002;13.668;2022-10-17T00:10:56;8.30;;;5.20;;
4023;SDS011;2026;51.002;13.668;2022-10-17T00:16:00;5.13;;;4.40;;
4023;SDS011;2026;51.002;13.668;2022-10-17T00:21:04;6.63;;;5.10;;
4023;SDS011;2026;51.002;13.668;2022-10-17T00:26:08;5.37;;;4.60;;
4023;SDS011;2026;51.002;13.668;2022-10-17T00:31:11;8.20;;;5.00;;
4023;SDS011;2026;51.002;13.668;2022-10-17T00:36:15;6.43;;;4.93;;
4023;SDS011;2026;51.002;13.668;2022-10-17T00:41:22;7.00;;;4.80;;
4023;SDS011;2026;51.002;13.668;2022-10-17T00:46:28;6.87;;;4.33;;
4023;SDS011;2026;51.002;13.668;2022-10-17T00:51:33;10.97;;;4.63;;
4023;SDS011;2026;51.002;13.668;2022-10-17T00:56:40;5.13;;;4.53;;
4023;SDS011;2026;51.002;13.668;2022-10-17T01:01:46;5.43;;;4.53;;
4023;SDS011;2026;51.002;13.668;2022-10-17T01:06:53;6.00;;;4.13;;
4023;SDS011;2026;51.002;13.668;2022-10-17T01:11:58;8.43;;;3.80;;
4023;SDS011;2026;51.002;13.668;2022-10-17T01:17:09;10.27;;;4.43;;
4023;SDS011;2026;51.002;13.668;2022-10-17T01:22:20;6.93;;;4.33;;
4023;SDS011;2026;51.002;13.668;2022-10-17T01:27:34;4.57;;;3.93;;
4023;SDS011;2026;51.002;13.668;2022-10-17T01:32:46;6.83;;;5.07;;
4023;SDS011;2026;51.002;13.668;2022-10-17T01:37:56;7.13;;;4.10;;
4023;SDS011;2026;51.002;13.668;2022-10-17T01:43:07;5.87;;;3.70;;
4023;SDS011;2026;51.002;13.668;2022-10-17T01:48:19;4.43;;;3.70;;
4023;SDS011;2026;51.002;13.668;2022-10-17T01:53:26;4.33;;;3.60;;
4023;SDS011;2026;51.002;13.668;2022-10-17T01:58:35;5.20;;;3.93;;
4023;SDS011;2026;51.002;13.668;2022-10-17T02:03:45;6.27;;;3.80;;
4023;SDS011;2026;51.002;13.668;2022-10-17T02:08:51;7.50;;;5.57;;
4023;SDS011;2026;51.002;13.668;2022-10-17T02:14:03;10.50;;;6.33;;
4023;SDS011;2026;51.002;13.668;2022-10-17T02:19:29;5.53;;;4.20;;
4023;SDS011;2026;51.002;13.668;2022-10-17T02:24:42;6.10;;;4.50;;
4023;SDS011;2026;51.002;13.668;2022-10-17T02:29:52;8.50;;;4.50;;
4023;SDS011;2026;51.002;13.668;2022-10-17T02:35:03;9.33;;;4.20;;
4023;SDS011;2026;51.002;13.668;2022-10-17T02:40:11;7.53;;;4.20;;
4023;SDS011;2026;51.002;13.668;2022-10-17T02:45:15;4.20;;;3.80;;
4023;SDS011;2026;51.002;13.668;2022-10-17T02:50:21;7.97;;;4.53;;
4023;SDS011;2026;51.002;13.668;2022-10-17T02:55:35;5.77;;;3.87;;
4023;SDS011;2026;51.002;13.668;2022-10-17T03:00:43;7.50;;;3.67;;
4023;SDS011;2026;51.002;13.668;2022-10-17T03:05:50;5.90;;;4.37;;
4023;SDS011;2026;51.002;13.668;2022-10-17T03:10:56;5.57;;;3.90;;
4023;SDS011;2026;51.002;13.668;2022-10-17T03:16:01;11.40;;;4.57;;
4023;SDS011;2026;51.002;13.668;2022-10-17T03:21:05;6.50;;;4.67;;
4023;SDS011;2026;51.002;13.668;2022-10-17T03:26:09;8.30;;;4.30;;
4023;SDS011;2026;51.002;13.668;2022-10-17T03:31:13;8.70;;;5.20;;
4023;SDS011;2026;51.002;13.668;2022-10-17T03:36:21;7.77;;;7.07;;
4023;SDS011;2026;51.002;13.668;2022-10-17T03:41:24;8.17;;;7.00;;
4023;SDS011;2026;51.002;13.668;2022-10-17T03:46:27;9.27;;;6.43;;
4023;SDS011;2026;51.002;13.668;2022-10-17T03:51:34;9.97;;;5.60;;
4023;SDS011;2026;51.002;13.668;2022-10-17T03:56:42;6.13;;;4.30;;
4023;SDS011;2026;51.002;13.668;2022-10-17T04:01:49;5.97;;;5.10;;
4023;SDS011;2026;51.002;13.668;2022-10-17T04:06:54;8.57;;;6.37;;
4023;SDS011;2026;51.002;13.668;2022-10-17T04:11:57;12.20;;;8.20;;
4023;SDS011;2026;51.002;13.668;2022-10-17T04:17:01;8.23;;;5.67;;
4023;SDS011;2026;51.002;13.668;2022-10-17T04:22:06;10.50;;;5.03;;
4023;SDS011;2026;51.002;13.668;2022-10-17T04:27:12;7.50;;;4.60;;
4023;SDS011;2026;51.002;13.668;2022-10-17T04:32:18;13.20;;;8.20;;
4023;SDS011;2026;51.002;13.668;2022-10-17T04:37:28;12.57;;;5.77;;
4023;SDS011;2026;51.002;13.668;2022-10-17T04:42:35;24.10;;;15.40;;
4023;SDS011;2026;51.002;13.668;2022-10-17T04:47:38;25.30;;;14.87;;
4023;SDS011;2026;51.002;13.668;2022-10-17T04:52:43;25.60;;;16.37;;
4023;SDS011;2026;51.002;13.668;2022-10-17T04:57:46;32.97;;;20.30;;
4023;SDS011;2026;51.002;13.668;2022-10-17T05:02:54;30.80;;;18.10;;
4023;SDS011;2026;51.002;13.668;2022-10-17T05:07:58;28.80;;;18.50;;
4023;SDS011;2026;51.002;13.668;2022-10-17T05:13:04;28.90;;;18.53;;
4023;SDS011;2026;51.002;13.668;2022-10-17T05:18:09;30.57;;;17.10;;
4023;SDS011;2026;51.002;13.668;2022-10-17T05:23:16;12.27;;;8.40;;
4023;SDS011;2026;51.002;13.668;2022-10-17T05:28:19;21.40;;;14.97;;
4023;SDS011;2026;51.002;13.668;2022-10-17T05:33:22;10.67;;;8.33;;
4023;SDS011;2026;51.002;13.668;2022-10-17T05:38:28;13.43;;;9.20;;
4023;SDS011;2026;51.002;13.668;2022-10-17T05:43:31;13.13;;;7.10;;
4023;SDS011;2026;51.002;13.668;2022-10-17T05:48:35;13.00;;;7.70;;
4023;SDS011;2026;51.002;13.668;2022-10-17T05:53:40;13.07;;;9.40;;
4023;SDS011;2026;51.002;13.668;2022-10-17T05:58:50;28.13;;;18.00;;
4023;SDS011;2026;51.002;13.668;2022-10-17T06:04:12;26.67;;;18.10;;
4023;SDS011;2026;51.002;13.668;2022-10-17T06:09:18;31.13;;;19.20;;
4023;SDS011;2026;51.002;13.668;2022-10-17T06:14:23;34.50;;;18.60;;
4023;SDS011;2026;51.002;13.668;2022-10-17T06:19:33;29.70;;;18.83;;
4023;SDS011;2026;51.002;13.668;2022-10-17T06:24:38;28.60;;;18.20;;
4023;SDS011;2026;51.002;13.668;2022-10-17T06:29:41;25.87;;;18.30;;
4023;SDS011;2026;51.002;13.668;2022-10-17T06:34:44;25.73;;;16.53;;
4023;SDS011;2026;51.002;13.668;2022-10-17T06:39:49;24.70;;;16.70;;
4023;SDS011;2026;51.002;13.668;2022-10-17T06:44:55;26.13;;;16.70;;
4023;SDS011;2026;51.002;13.668;2022-10-17T06:50:15;22.93;;;16.30;;
4023;SDS011;2026;51.002;13.668;2022-10-17T06:55:33;25.60;;;16.93;;
4023;SDS011;2026;51.002;13.668;2022-10-17T07:01:03;27.53;;;17.00;;
4023;SDS011;2026;51.002;13.668;2022-10-17T07:06:13;26.20;;;18.20;;
4023;SDS011;2026;51.002;13.668;2022-10-17T07:11:19;27.27;;;17.03;;
4023;SDS011;2026;51.002;13.668;2022-10-17T07:16:26;25.70;;;18.43;;
4023;SDS011;2026;51.002;13.668;2022-10-17T07:21:36;24.00;;;16.10;;
4023;SDS011;2026;51.002;13.668;2022-10-17T07:26:43;28.97;;;19.67;;
4023;SDS011;2026;51.002;13.668;2022-10-17T07:31:46;23.17;;;16.30;;
4023;SDS011;2026;51.002;13.668;2022-10-17T07:36:51;25.00;;;16.83;;
4023;SDS011;2026;51.002;13.668;2022-10-17T07:41:55;23.67;;;16.30;;
4023;SDS011;2026;51.002;13.668;2022-10-17T07:46:59;23.67;;;14.50;;
4023;SDS011;2026;51.002;13.668;2022-10-17T07:52:02;21.70;;;14.73;;
4023;SDS011;2026;51.002;13.668;2022-10-17T07:57:07;20.60;;;14.60;;
4023;SDS011;2026;51.002;13.668;2022-10-17T08:02:11;15.37;;;12.57;;
4023;SDS011;2026;51.002;13.668;2022-10-17T08:07:19;15.67;;;11.93;;
4023;SDS011;2026;51.002;13.668;2022-10-17T08:12:31;16.03;;;11.93;;
4023;SDS011;2026;51.002;13.668;2022-10-17T08:17:35;15.37;;;10.70;;
4023;SDS011;2026;51.002;13.668;2022-10-17T08:22:39;15.57;;;12.17;;
4023;SDS011;2026;51.002;13.668;2022-10-17T08:27:44;14.23;;;11.07;;
4023;SDS011;2026;51.002;13.668;2022-10-17T08:32:47;14.80;;;10.83;;
4023;SDS011;2026;51.002;13.668;2022-10-17T08:37:50;14.30;;;11.00;;
4023;SDS011;2026;51.002;13.668;2022-10-17T08:43:03;13.10;;;9.83;;
4023;SDS011;2026;51.002;13.668;2022-10-17T08:48:16;12.33;;;9.40;;
4023;SDS011;2026;51.002;13.668;2022-10-17T08:53:22;13.47;;;9.57;;
4023;SDS011;2026;51.002;13.668;2022-10-17T08:58:33;17.67;;;13.23;;
4023;SDS011;2026;51.002;13.668;2022-10-17T09:03:43;18.50;;;11.70;;
4023;SDS011;2026;51.002;13.668;2022-10-17T09:09:02;24.87;;;14.93;;
4023;SDS011;2026;51.002;13.668;2022-10-17T09:14:20;22.20;;;16.43;;
4023;SDS011;2026;51.002;13.668;2022-10-17T09:19:34;19.83;;;14.77;;
4023;SDS011;2026;51.002;13.668;2022-10-17T09:24:41;18.10;;;14.53;;
4023;SDS011;2026;51.002;13.668;2022-10-17T09:29:49;26.07;;;16.73;;
4023;SDS011;2026;51.002;13.668;2022-10-17T09:34:55;24.20;;;17.73;;
4023;SDS011;2026;51.002;13.668;2022-10-17T09:39:59;22.80;;;17.50;;
4023;SDS011;2026;51.002;13.668;2022-10-17T09:45:10;25.37;;;18.10;;
4023;SDS011;2026;51.002;13.668;2022-10-17T09:50:20;21.43;;;17.40;;
4023;SDS011;2026;51.002;13.668;2022-10-17T09:55:30;23.40;;;17.90;;
4023;SDS011;2026;51.002;13.668;2022-10-17T10:00:41;22.67;;;17.67;;
4023;SDS011;2026;51.002;13.668;2022-10-17T10:11:15;21.00;;;16.67;;
4023;SDS011;2026;51.002;13.668;2022-10-17T10:16:21;25.50;;;17.00;;
4023;SDS011;2026;51.002;13.668;2022-10-17T10:21:31;19.47;;;14.97;;
4023;SDS011;2026;51.002;13.668;2022-10-17T10:26:38;20.23;;;15.30;;
4023;SDS011;2026;51.002;13.668;2022-10-17T10:31:43;19.33;;;15.40;;
4023;SDS011;2026;51.002;13.668;2022-10-17T10:36:49;23.47;;;17.40;;
4023;SDS011;2026;51.002;13.668;2022-10-17T10:41:56;23.70;;;18.50;;
4023;SDS011;2026;51.002;13.668;2022-10-17T10:47:17;26.10;;;18.10;;
4023;SDS011;2026;51.002;13.668;2022-10-17T10:52:26;22.27;;;16.83;;
4023;SDS011;2026;51.002;13.668;2022-10-17T10:57:32;22.63;;;18.60;;
4023;SDS011;2026;51.002;13.668;2022-10-17T11:02:41;22.67;;;18.10;;
4023;SDS011;2026;51.002;13.668;2022-10-17T11:07:54;27.30;;;19.37;;
4023;SDS011;2026;51.002;13.668;2022-10-17T11:13:08;23.33;;;17.47;;
4023;SDS011;2026;51.002;13.668;2022-10-17T11:18:19;25.87;;;18.30;;
4023;SDS011;2026;51.002;13.668;2022-10-17T11:23:27;23.10;;;17.90;;
4023;SDS011;2026;51.002;13.668;2022-10-17T11:28:42;22.17;;;16.73;;
4023;SDS011;2026;51.002;13.668;2022-10-17T11:33:48;27.80;;;17.60;;
4023;SDS011;2026;51.002;13.668;2022-10-17T11:38:54;22.80;;;18.40;;
4023;SDS011;2026;51.002;13.668;2022-10-17T11:44:03;25.83;;;18.60;;
4023;SDS011;2026;51.002;13.668;2022-10-17T11:49:11;23.30;;;18.00;;
4023;SDS011;2026;51.002;13.668;2022-10-17T11:54:23;24.27;;;17.87;;
4023;SDS011;2026;51.002;13.668;2022-10-17T11:59:38;22.43;;;18.40;;
4023;SDS011;2026;51.002;13.668;2022-10-17T12:05:02;25.07;;;18.83;;
4023;SDS011;2026;51.002;13.668;2022-10-17T12:10:16;21.77;;;16.97;;
4023;SDS011;2026;51.002;13.668;2022-10-17T12:15:30;20.27;;;16.67;;
4023;SDS011;2026;51.002;13.668;2022-10-17T12:20:35;18.60;;;15.10;;
4023;SDS011;2026;51.002;13.668;2022-10-17T12:25:46;17.60;;;13.40;;
4023;SDS011;2026;51.002;13.668;2022-10-17T12:30:52;16.70;;;13.63;;
4023;SDS011;2026;51.002;13.668;2022-10-17T12:41:54;19.10;;;15.37;;
4023;SDS011;2026;51.002;13.668;2022-10-17T12:46:57;19.20;;;15.00;;
4023;SDS011;2026;51.002;13.668;2022-10-17T12:52:23;18.30;;;14.67;;
4023;SDS011;2026;51.002;13.668;2022-10-17T12:57:29;19.60;;;14.73;;
4023;SDS011;2026;51.002;13.668;2022-10-17T13:02:36;18.83;;;14.47;;
4023;SDS011;2026;51.002;13.668;2022-10-17T13:07:41;20.13;;;15.70;;
4023;SDS011;2026;51.002;13.668;2022-10-17T13:12:48;15.83;;;13.50;;
4023;SDS011;2026;51.002;13.668;2022-10-17T13:17:56;19.63;;;15.20;;
4023;SDS011;2026;51.002;13.668;2022-10-17T13:23:02;18.43;;;15.10;;
4023;SDS011;2026;51.002;13.668;2022-10-17T13:28:06;20.23;;;15.07;;
4023;SDS011;2026;51.002;13.668;2022-10-17T13:38:40;21.43;;;16.03;;
4023;SDS011;2026;51.002;13.668;2022-10-17T13:43:44;20.00;;;15.00;;
4023;SDS011;2026;51.002;13.668;2022-10-17T13:48:47;25.20;;;18.07;;
4023;SDS011;2026;51.002;13.668;2022-10-17T13:53:52;21.97;;;16.50;;
4023;SDS011;2026;51.002;13.668;2022-10-17T13:58:55;22.63;;;16.97;;
4023;SDS011;2026;51.002;13.668;2022-10-17T14:04:00;27.10;;;17.83;;
4023;SDS011;2026;51.002;13.668;2022-10-17T14:09:16;23.03;;;16.97;;
4023;SDS011;2026;51.002;13.668;2022-10-17T14:14:23;24.43;;;18.77;;
4023;SDS011;2026;51.002;13.668;2022-10-17T14:19:28;22.87;;;17.83;;
4023;SDS011;2026;51.002;13.668;2022-10-17T14:24:35;23.43;;;18.20;;
4023;SDS011;2026;51.002;13.668;2022-10-17T14:29:48;24.87;;;18.13;;
4023;SDS011;2026;51.002;13.668;2022-10-17T14:34:53;25.40;;;19.53;;
4023;SDS011;2026;51.002;13.668;2022-10-17T14:40:20;27.10;;;20.07;;
4023;SDS011;2026;51.002;13.668;2022-10-17T14:45:26;28.97;;;20.10;;
4023;SDS011;2026;51.002;13.668;2022-10-17T14:50:31;26.10;;;19.77;;
4023;SDS011;2026;51.002;13.668;2022-10-17T14:55:38;24.43;;;19.50;;
4023;SDS011;2026;51.002;13.668;2022-10-17T15:00:42;25.83;;;19.67;;
4023;SDS011;2026;51.002;13.668;2022-10-17T15:05:45;25.50;;;19.80;;
4023;SDS011;2026;51.002;13.668;2022-10-17T15:10:50;32.33;;;19.73;;
4023;SDS011;2026;51.002;13.668;2022-10-17T15:15:53;28.10;;;19.20;;
4023;SDS011;2026;51.002;13.668;2022-10-17T15:20:56;24.93;;;19.37;;
4023;SDS011;2026;51.002;13.668;2022-10-17T15:26:11;31.70;;;22.20;;
4023;SDS011;2026;51.002;13.668;2022-10-17T15:31:17;29.23;;;20.43;;
4023;SDS011;2026;51.002;13.668;2022-10-17T15:36:22;28.07;;;20.23;;
4023;SDS011;2026;51.002;13.668;2022-10-17T15:41:28;27.53;;;19.83;;
4023;SDS011;2026;51.002;13.668;2022-10-17T15:46:33;26.63;;;20.00;;
4023;SDS011;2026;51.002;13.668;2022-10-17T15:51:37;28.57;;;20.13;;
4023;SDS011;2026;51.002;13.668;2022-10-17T15:56:41;32.37;;;20.47;;
4023;SDS011;2026;51.002;13.668;2022-10-17T16:01:49;26.93;;;19.10;;
4023;SDS011;2026;51.002;13.668;2022-10-17T16:06:52;27.47;;;20.13;;
4023;SDS011;2026;51.002;13.668;2022-10-17T16:11:57;28.57;;;21.10;;
4023;SDS011;2026;51.002;13.668;2022-10-17T16:17:00;26.93;;;20.37;;
4023;SDS011;2026;51.002;13.668;2022-10-17T16:22:03;27.43;;;21.53;;
4023;SDS011;2026;51.002;13.668;2022-10-17T16:27:08;27.57;;;20.63;;
4023;SDS011;2026;51.002;13.668;2022-10-17T16:32:11;29.97;;;21.43;;
4023;SDS011;2026;51.002;13.668;2022-10-17T16:37:14;27.77;;;21.43;;
4023;SDS011;2026;51.002;13.668;2022-10-17T16:42:18;33.43;;;23.27;;
4023;SDS011;2026;51.002;13.668;2022-10-17T16:47:22;30.43;;;21.60;;
4023;SDS011;2026;51.002;13.668;2022-10-17T16:52:25;33.67;;;24.60;;
4023;SDS011;2026;51.002;13.668;2022-10-17T16:57:29;35.90;;;22.90;;
4023;SDS011;2026;51.002;13.668;2022-10-17T17:02:32;35.70;;;21.40;;
4023;SDS011;2026;51.002;13.668;2022-10-17T17:07:35;32.77;;;25.13;;
4023;SDS011;2026;51.002;13.668;2022-10-17T17:12:40;34.57;;;24.90;;
4023;SDS011;2026;51.002;13.668;2022-10-17T17:17:43;34.13;;;23.80;;
4023;SDS011;2026;51.002;13.668;2022-10-17T17:22:52;35.53;;;23.73;;
4023;SDS011;2026;51.002;13.668;2022-10-17T17:27:57;30.17;;;23.70;;
4023;SDS011;2026;51.002;13.668;2022-10-17T17:33:00;33.30;;;23.37;;
4023;SDS011;2026;51.002;13.668;2022-10-17T17:38:02;38.03;;;25.37;;
4023;SDS011;2026;51.002;13.668;2022-10-17T17:43:07;35.80;;;22.73;;
4023;SDS011;2026;51.002;13.668;2022-10-17T17:48:10;33.63;;;21.57;;
4023;SDS011;2026;51.002;13.668;2022-10-17T17:53:14;31.90;;;22.03;;
4023;SDS011;2026;51.002;13.668;2022-10-17T17:58:19;31.67;;;22.27;;
4023;SDS011;2026;51.002;13.668;2022-10-17T18:03:22;37.20;;;25.23;;
4023;SDS011;2026;51.002;13.668;2022-10-17T18:08:25;34.20;;;23.90;;
4023;SDS011;2026;51.002;13.668;2022-10-17T18:13:30;36.63;;;25.53;;
4023;SDS011;2026;51.002;13.668;2022-10-17T18:18:33;30.70;;;21.97;;
4023;SDS011;2026;51.002;13.668;2022-10-17T18:23:37;33.07;;;20.40;;
4023;SDS011;2026;51.002;13.668;2022-10-17T18:28:42;32.97;;;21.93;;
4023;SDS011;2026;51.002;13.668;2022-10-17T18:33:46;24.97;;;18.53;;
4023;SDS011;2026;51.002;13.668;2022-10-17T18:38:49;29.00;;;20.17;;
4023;SDS011;2026;51.002;13.668;2022-10-17T18:43:53;28.57;;;19.83;;
4023;SDS011;2026;51.002;13.668;2022-10-17T18:48:57;28.30;;;19.33;;
4023;SDS011;2026;51.002;13.668;2022-10-17T18:54:00;28.17;;;19.40;;
4023;SDS011;2026;51.002;13.668;2022-10-17T18:59:05;37.30;;;21.57;;
4023;SDS011;2026;51.002;13.668;2022-10-17T19:04:08;29.73;;;20.13;;
4023;SDS011;2026;51.002;13.668;2022-10-17T19:09:12;27.80;;;20.50;;
4023;SDS011;2026;51.002;13.668;2022-10-17T19:14:17;30.43;;;20.67;;
4023;SDS011;2026;51.002;13.668;2022-10-17T19:19:21;29.10;;;20.93;;
4023;SDS011;2026;51.002;13.668;2022-10-17T19:24:25;26.70;;;20.40;;
4023;SDS011;2026;51.002;13.668;2022-10-17T19:29:30;27.73;;;20.53;;
4023;SDS011;2026;51.002;13.668;2022-10-17T19:34:33;27.37;;;19.80;;
4023;SDS011;2026;51.002;13.668;2022-10-17T19:39:36;31.50;;;19.80;;
4023;SDS011;2026;51.002;13.668;2022-10-17T19:44:41;26.43;;;19.30;;
4023;SDS011;2026;51.002;13.668;2022-10-17T19:49:44;23.97;;;17.40;;
4023;SDS011;2026;51.002;13.668;2022-10-17T19:54:50;24.40;;;17.80;;
4023;SDS011;2026;51.002;13.668;2022-10-17T19:59:54;30.17;;;17.70;;
4023;SDS011;2026;51.002;13.668;2022-10-17T20:04:57;24.97;;;18.03;;
4023;SDS011;2026;51.002;13.668;2022-10-17T20:10:19;28.33;;;18.43;;
4023;SDS011;2026;51.002;13.668;2022-10-17T20:15:23;24.33;;;17.60;;
4023;SDS011;2026;51.002;13.668;2022-10-17T20:20:26;24.50;;;18.57;;
4023;SDS011;2026;51.002;13.668;2022-10-17T20:25:29;22.37;;;17.20;;
4023;SDS011;2026;51.002;13.668;2022-10-17T20:30:35;26.07;;;19.20;;
4023;SDS011;2026;51.002;13.668;2022-10-17T20:35:39;27.10;;;18.40;;
4023;SDS011;2026;51.002;13.668;2022-10-17T20:40:43;25.13;;;17.90;;
4023;SDS011;2026;51.002;13.668;2022-10-17T20:45:48;22.33;;;16.97;;
4023;SDS011;2026;51.002;13.668;2022-10-17T20:50:53;24.23;;;17.50;;
4023;SDS011;2026;51.002;13.668;2022-10-17T20:55:59;27.40;;;17.47;;
4023;SDS011;2026;51.002;13.668;2022-10-17T21:01:05;30.03;;;18.43;;
4023;SDS011;2026;51.002;13.668;2022-10-17T21:06:09;27.63;;;19.33;;
4023;SDS011;2026;51.002;13.668;2022-10-17T21:11:13;26.87;;;18.27;;
4023;SDS011;2026;51.002;13.668;2022-10-17T21:16:18;32.60;;;20.37;;
4023;SDS011;2026;51.002;13.668;2022-10-17T21:21:22;35.10;;;22.00;;
4023;SDS011;2026;51.002;13.668;2022-10-17T21:26:27;28.40;;;19.33;;
4023;SDS011;2026;51.002;13.668;2022-10-17T21:31:32;31.30;;;22.37;;
4023;SDS011;2026;51.002;13.668;2022-10-17T21:36:36;29.80;;;21.27;;
4023;SDS011;2026;51.002;13.668;2022-10-17T21:41:40;30.57;;;21.07;;
4023;SDS011;2026;51.002;13.668;2022-10-17T21:46:45;31.13;;;20.83;;
4023;SDS011;2026;51.002;13.668;2022-10-17T21:51:49;34.60;;;21.23;;
4023;SDS011;2026;51.002;13.668;2022-10-17T21:56:52;31.13;;;20.07;;
4023;SDS011;2026;51.002;13.668;2022-10-17T22:01:56;26.33;;;18.27;;
4023;SDS011;2026;51.002;13.668;2022-10-17T22:06:59;20.40;;;14.30;;
4023;SDS011;2026;51.002;13.668;2022-10-17T22:12:02;18.87;;;12.90;;
4023;SDS011;2026;51.002;13.668;2022-10-17T22:17:07;24.83;;;17.67;;
4023;SDS011;2026;51.002;13.668;2022-10-17T22:22:09;25.87;;;18.57;;
4023;SDS011;2026;51.002;13.668;2022-10-17T22:27:12;29.00;;;19.20;;
4023;SDS011;2026;51.002;13.668;2022-10-17T22:32:17;27.30;;;18.40;;
4023;SDS011;2026;51.002;13.668;2022-10-17T22:37:23;28.97;;;19.60;;
4023;SDS011;2026;51.002;13.668;2022-10-17T22:42:26;24.33;;;18.53;;
4023;SDS011;2026;51.002;13.668;2022-10-17T22:47:33;24.90;;;16.83;;
4023;SDS011;2026;51.002;13.668;2022-10-17T22:52:36;25.10;;;17.23;;
4023;SDS011;2026;51.002;13.668;2022-10-17T22:57:39;24.77;;;16.80;;
4023;SDS011;2026;51.002;13.668;2022-10-17T23:02:43;26.60;;;16.63;;
4023;SDS011;2026;51.002;13.668;2022-10-17T23:07:46;24.37;;;16.07;;
4023;SDS011;2026;51.002;13.668;2022-10-17T23:12:49;21.67;;;14.83;;
4023;SDS011;2026;51.002;13.668;2022-10-17T23:17:53;18.03;;;12.03;;
4023;SDS011;2026;51.002;13.668;2022-10-17T23:22:56;16.60;;;11.03;;
4023;SDS011;2026;51.002;13.668;2022-10-17T23:28:00;14.77;;;11.13;;
4023;SDS011;2026;51.002;13.668;2022-10-17T23:33:04;16.43;;;10.80;;
4023;SDS011;2026;51.002;13.668;2022-10-17T23:38:08;18.63;;;12.10;;
4023;SDS011;2026;51.002;13.668;2022-10-17T23:43:11;18.60;;;13.00;;
4023;SDS011;2026;51.002;13.668;2022-10-17T23:48:15;15.57;;;11.70;;
4023;SDS011;2026;51.002;13.668;2022-10-17T23:53:18;26.40;;;16.40;;
4023;SDS011;2026;51.002;13.668;2022-10-17T23:58:21;26.93;;;17.07;;
